sensor_id;sensor_type;location;lat;lon;timestamp;pressure;altitude;pressure_sealevel;temperature;humidity
76827;BME280;65788;52.284;20.890;2023-01-19T00:00:58;99093.27;;;19.00;37.12
76827;BME280;65788;52.284;20.890;2023-01-19T00:03:28;99099.34;;;18.95;37.23
76827;BME280;65788;52.284;20.890;2023-01-19T00:05:55;99107.70;;;18.91;37.22
76827;BME280;65788;52.284;20.890;2023-01-19T00:08:22;99123.27;;;18.87;37.21
76827;BME280;65788;52.284;20.890;2023-01-19T00:10:51;99134.31;;;18.84;37.25
76827;BME280;65788;52.284;20.890;2023-01-19T00:13:19;99137.96;;;18.80;37.25
76827;BME280;65788;52.284;20.890;2023-01-19T00:15:46;99139.04;;;18.79;37.43
76827;BME280;65788;52.284;20.890;2023-01-19T00:18:13;99143.81;;;18.79;38.00
76827;BME280;65788;52.284;20.890;2023-01-19T00:20:44;99153.72;;;18.78;38.02
76827;BME280;65788;52.284;20.890;2023-01-19T00:23:12;99150.83;;;18.78;37.96
76827;BME280;65788;52.284;20.890;2023-01-19T00:25:39;99146.54;;;18.73;37.98
76827;BME280;65788;52.284;20.890;2023-01-19T00:28:11;99154.64;;;18.71;37.99
76827;BME280;65788;52.284;20.890;2023-01-19T00:30:39;99161.42;;;18.69;38.02
76827;BME280;65788;52.284;20.890;2023-01-19T00:33:09;99162.31;;;18.68;37.96
76827;BME280;65788;52.284;20.890;2023-01-19T00:35:36;99166.29;;;18.65;38.00
76827;BME280;65788;52.284;20.890;2023-01-19T00:38:03;99169.62;;;18.65;37.96
76827;BME280;65788;52.284;20.890;2023-01-19T00:40:30;99173.39;;;18.63;38.01
76827;BME280;65788;52.284;20.890;2023-01-19T00:42:57;99176.76;;;18.60;38.00
76827;BME280;65788;52.284;20.890;2023-01-19T00:45:26;99186.23;;;18.59;38.02
76827;BME280;65788;52.284;20.890;2023-01-19T00:47:53;99192.86;;;18.58;38.04
76827;BME280;65788;52.284;20.890;2023-01-19T00:50:25;99192.98;;;18.59;38.01
76827;BME280;65788;52.284;20.890;2023-01-19T00:52:54;99197.06;;;18.57;38.06
76827;BME280;65788;52.284;20.890;2023-01-19T00:55:22;99195.11;;;18.57;38.03
76827;BME280;65788;52.284;20.890;2023-01-19T00:57:49;99194.15;;;18.54;38.08
76827;BME280;65788;52.284;20.890;2023-01-19T01:00:20;99188.52;;;18.52;38.08
76827;BME280;65788;52.284;20.890;2023-01-19T01:02:50;99183.43;;;18.49;38.07
76827;BME280;65788;52.284;20.890;2023-01-19T01:05:19;99180.13;;;18.50;38.06
76827;BME280;65788;52.284;20.890;2023-01-19T01:07:46;99178.96;;;18.51;38.06
76827;BME280;65788;52.284;20.890;2023-01-19T01:10:18;99177.80;;;18.50;38.05
76827;BME280;65788;52.284;20.890;2023-01-19T01:12:46;99180.93;;;18.47;38.11
76827;BME280;65788;52.284;20.890;2023-01-19T01:15:15;99179.89;;;18.45;38.13
76827;BME280;65788;52.284;20.890;2023-01-19T01:17:42;99179.85;;;18.45;38.06
76827;BME280;65788;52.284;20.890;2023-01-19T01:20:16;99176.29;;;18.44;38.08
76827;BME280;65788;52.284;20.890;2023-01-19T01:22:45;99176.21;;;18.44;38.10
76827;BME280;65788;52.284;20.890;2023-01-19T01:25:14;99173.46;;;18.39;38.19
76827;BME280;65788;52.284;20.890;2023-01-19T01:27:41;99167.08;;;18.38;38.16
76827;BME280;65788;52.284;20.890;2023-01-19T01:30:11;99168.04;;;18.41;38.05
76827;BME280;65788;52.284;20.890;2023-01-19T01:32:38;99163.60;;;18.35;38.13
76827;BME280;65788;52.284;20.890;2023-01-19T01:35:07;99160.79;;;18.33;38.16
76827;BME280;65788;52.284;20.890;2023-01-19T01:37:37;99159.21;;;18.32;38.19
76827;BME280;65788;52.284;20.890;2023-01-19T01:40:05;99161.15;;;18.32;38.17
76827;BME280;65788;52.284;20.890;2023-01-19T01:42:33;99159.66;;;18.30;38.19
76827;BME280;65788;52.284;20.890;2023-01-19T01:45:06;99163.58;;;18.27;38.26
76827;BME280;65788;52.284;20.890;2023-01-19T01:47:41;99161.39;;;18.25;38.26
76827;BME280;65788;52.284;20.890;2023-01-19T01:50:20;99156.77;;;18.26;38.21
76827;BME280;65788;52.284;20.890;2023-01-19T01:52:51;99154.14;;;18.23;38.26
76827;BME280;65788;52.284;20.890;2023-01-19T01:55:19;99154.73;;;18.23;38.26
76827;BME280;65788;52.284;20.890;2023-01-19T01:57:51;99152.17;;;18.22;38.26
76827;BME280;65788;52.284;20.890;2023-01-19T02:00:22;99147.63;;;18.19;38.31
76827;BME280;65788;52.284;20.890;2023-01-19T02:02:49;99150.61;;;18.19;38.30
76827;BME280;65788;52.284;20.890;2023-01-19T02:05:29;99149.81;;;18.19;38.28
76827;BME280;65788;52.284;20.890;2023-01-19T02:10:55;99147.13;;;18.14;38.36
76827;BME280;65788;52.284;20.890;2023-01-19T02:13:42;99145.86;;;18.14;38.34
76827;BME280;65788;52.284;20.890;2023-01-19T02:16:10;99146.29;;;18.14;38.33
76827;BME280;65788;52.284;20.890;2023-01-19T02:18:39;99146.62;;;18.10;38.38
76827;BME280;65788;52.284;20.890;2023-01-19T02:21:19;99146.77;;;18.10;38.38
76827;BME280;65788;52.284;20.890;2023-01-19T02:23:53;99151.47;;;18.09;38.38
76827;BME280;65788;52.284;20.890;2023-01-19T02:26:26;99148.39;;;18.07;38.39
76827;BME280;65788;52.284;20.890;2023-01-19T02:29:02;99150.67;;;18.05;38.42
76827;BME280;65788;52.284;20.890;2023-01-19T02:31:31;99150.13;;;18.03;38.46
76827;BME280;65788;52.284;20.890;2023-01-19T02:34:02;99151.03;;;18.04;38.43
76827;BME280;65788;52.284;20.890;2023-01-19T02:36:52;99152.80;;;18.01;38.47
76827;BME280;65788;52.284;20.890;2023-01-19T02:39:32;99151.27;;;18.01;38.44
76827;BME280;65788;52.284;20.890;2023-01-19T02:42:05;99153.06;;;18.01;38.44
76827;BME280;65788;52.284;20.890;2023-01-19T02:44:35;99149.29;;;18.00;38.44
76827;BME280;65788;52.284;20.890;2023-01-19T02:47:03;99150.59;;;17.99;38.47
76827;BME280;65788;52.284;20.890;2023-01-19T02:49:31;99157.52;;;17.97;38.48
76827;BME280;65788;52.284;20.890;2023-01-19T02:51:58;99157.73;;;17.97;38.48
76827;BME280;65788;52.284;20.890;2023-01-19T02:54:45;99156.39;;;17.96;38.47
76827;BME280;65788;52.284;20.890;2023-01-19T03:00:13;99168.77;;;17.95;38.46
76827;BME280;65788;52.284;20.890;2023-01-19T03:11:07;99166.16;;;17.93;38.46
76827;BME280;65788;52.284;20.890;2023-01-19T03:13:51;99161.14;;;17.91;38.48
76827;BME280;65788;52.284;20.890;2023-01-19T03:16:31;99156.11;;;17.92;38.45
76827;BME280;65788;52.284;20.890;2023-01-19T03:19:30;99154.99;;;17.89;38.48
76827;BME280;65788;52.284;20.890;2023-01-19T03:22:10;99153.84;;;17.87;38.51
76827;BME280;65788;52.284;20.890;2023-01-19T03:24:41;99156.30;;;17.88;38.50
76827;BME280;65788;52.284;20.890;2023-01-19T03:27:14;99162.20;;;17.87;38.50
76827;BME280;65788;52.284;20.890;2023-01-19T03:29:47;99163.56;;;17.89;38.47
76827;BME280;65788;52.284;20.890;2023-01-19T03:32:21;99164.98;;;17.88;38.47
76827;BME280;65788;52.284;20.890;2023-01-19T03:34:50;99168.60;;;17.86;38.49
76827;BME280;65788;52.284;20.890;2023-01-19T03:37:20;99176.38;;;17.85;38.51
76827;BME280;65788;52.284;20.890;2023-01-19T03:39:51;99177.98;;;17.85;38.49
76827;BME280;65788;52.284;20.890;2023-01-19T03:42:19;99182.20;;;17.86;38.48
76827;BME280;65788;52.284;20.890;2023-01-19T03:44:48;99184.95;;;17.82;38.54
76827;BME280;65788;52.284;20.890;2023-01-19T03:47:18;99182.78;;;17.82;38.53
76827;BME280;65788;52.284;20.890;2023-01-19T03:49:48;99188.17;;;17.83;38.50
76827;BME280;65788;52.284;20.890;2023-01-19T03:52:26;99190.14;;;17.82;38.50
76827;BME280;65788;52.284;20.890;2023-01-19T03:54:53;99199.41;;;17.83;38.49
76827;BME280;65788;52.284;20.890;2023-01-19T03:57:21;99202.51;;;17.81;38.52
76827;BME280;65788;52.284;20.890;2023-01-19T03:59:48;99202.25;;;17.81;38.51
76827;BME280;65788;52.284;20.890;2023-01-19T04:02:15;99198.80;;;17.78;38.54
76827;BME280;65788;52.284;20.890;2023-01-19T04:04:42;99204.08;;;17.79;38.53
76827;BME280;65788;52.284;20.890;2023-01-19T04:07:10;99206.55;;;17.78;38.51
76827;BME280;65788;52.284;20.890;2023-01-19T04:09:39;99214.13;;;17.78;38.53
76827;BME280;65788;52.284;20.890;2023-01-19T04:12:07;99220.39;;;17.78;38.54
76827;BME280;65788;52.284;20.890;2023-01-19T04:14:34;99222.30;;;17.77;38.55
76827;BME280;65788;52.284;20.890;2023-01-19T04:17:02;99221.33;;;17.76;38.59
76827;BME280;65788;52.284;20.890;2023-01-19T04:19:29;99221.61;;;17.75;38.58
76827;BME280;65788;52.284;20.890;2023-01-19T04:21:56;99226.36;;;17.76;38.56
76827;BME280;65788;52.284;20.890;2023-01-19T04:24:23;99227.20;;;17.73;38.58
76827;BME280;65788;52.284;20.890;2023-01-19T04:26:51;99235.11;;;17.76;38.52
76827;BME280;65788;52.284;20.890;2023-01-19T04:29:21;99226.42;;;17.74;38.55
76827;BME280;65788;52.284;20.890;2023-01-19T04:31:48;99229.63;;;17.73;38.55
76827;BME280;65788;52.284;20.890;2023-01-19T04:34:15;99238.83;;;17.73;38.55
76827;BME280;65788;52.284;20.890;2023-01-19T04:36:42;99237.61;;;17.69;38.59
76827;BME280;65788;52.284;20.890;2023-01-19T04:39:11;99243.41;;;17.69;38.62
76827;BME280;65788;52.284;20.890;2023-01-19T04:41:38;99245.56;;;17.73;38.55
76827;BME280;65788;52.284;20.890;2023-01-19T04:44:06;99247.21;;;17.68;38.62
76827;BME280;65788;52.284;20.890;2023-01-19T04:46:33;99248.17;;;17.69;38.58
76827;BME280;65788;52.284;20.890;2023-01-19T04:49:00;99253.45;;;17.67;38.61
76827;BME280;65788;52.284;20.890;2023-01-19T04:51:28;99252.53;;;17.68;38.58
76827;BME280;65788;52.284;20.890;2023-01-19T04:53:55;99253.71;;;17.71;38.52
76827;BME280;65788;52.284;20.890;2023-01-19T04:56:23;99257.35;;;17.80;38.42
76827;BME280;65788;52.284;20.890;2023-01-19T04:58:50;99262.52;;;17.88;38.29
76827;BME280;65788;52.284;20.890;2023-01-19T05:01:17;99262.01;;;17.98;38.18
76827;BME280;65788;52.284;20.890;2023-01-19T05:03:44;99264.55;;;18.08;38.12
76827;BME280;65788;52.284;20.890;2023-01-19T05:06:11;99264.39;;;18.15;38.06
76827;BME280;65788;52.284;20.890;2023-01-19T05:08:38;99268.56;;;18.21;37.96
76827;BME280;65788;52.284;20.890;2023-01-19T05:11:05;99276.02;;;18.24;37.94
76827;BME280;65788;52.284;20.890;2023-01-19T05:13:32;99270.71;;;18.25;37.92
76827;BME280;65788;52.284;20.890;2023-01-19T05:15:59;99270.33;;;18.27;37.89
76827;BME280;65788;52.284;20.890;2023-01-19T05:18:27;99275.91;;;18.32;37.82
76827;BME280;65788;52.284;20.890;2023-01-19T05:20:54;99280.33;;;18.39;37.72
76827;BME280;65788;52.284;20.890;2023-01-19T05:23:21;99276.02;;;18.47;37.57
76827;BME280;65788;52.284;20.890;2023-01-19T05:25:48;99269.58;;;18.51;37.52
76827;BME280;65788;52.284;20.890;2023-01-19T05:28:15;99267.29;;;18.58;37.41
76827;BME280;65788;52.284;20.890;2023-01-19T05:30:43;99263.98;;;18.65;37.30
76827;BME280;65788;52.284;20.890;2023-01-19T05:33:10;99265.89;;;18.71;37.26
76827;BME280;65788;52.284;20.890;2023-01-19T05:35:37;99269.17;;;18.75;37.25
76827;BME280;65788;52.284;20.890;2023-01-19T05:38:04;99275.14;;;18.79;37.24
76827;BME280;65788;52.284;20.890;2023-01-19T05:40:31;99285.48;;;18.84;37.24
76827;BME280;65788;52.284;20.890;2023-01-19T05:43:01;99295.05;;;18.89;37.17
76827;BME280;65788;52.284;20.890;2023-01-19T05:45:30;99298.09;;;18.92;37.37
76827;BME280;65788;52.284;20.890;2023-01-19T05:47:56;99296.33;;;18.95;37.73
76827;BME280;65788;52.284;20.890;2023-01-19T05:50:23;99297.98;;;18.97;37.76
76827;BME280;65788;52.284;20.890;2023-01-19T05:52:51;99296.36;;;18.99;37.71
76827;BME280;65788;52.284;20.890;2023-01-19T05:55:20;99295.71;;;19.03;37.61
76827;BME280;65788;52.284;20.890;2023-01-19T05:57:47;99297.34;;;19.05;37.54
76827;BME280;65788;52.284;20.890;2023-01-19T06:00:15;99299.15;;;19.09;37.53
76827;BME280;65788;52.284;20.890;2023-01-19T06:02:42;99299.06;;;19.10;37.51
76827;BME280;65788;52.284;20.890;2023-01-19T06:05:09;99302.63;;;19.13;37.53
76827;BME280;65788;52.284;20.890;2023-01-19T06:07:36;99311.95;;;19.16;37.73
76827;BME280;65788;52.284;20.890;2023-01-19T06:10:04;99316.92;;;19.21;37.75
76827;BME280;65788;52.284;20.890;2023-01-19T06:12:31;99319.20;;;19.24;37.75
76827;BME280;65788;52.284;20.890;2023-01-19T06:14:58;99313.04;;;19.27;37.73
76827;BME280;65788;52.284;20.890;2023-01-19T06:17:31;99315.05;;;19.30;37.64
76827;BME280;65788;52.284;20.890;2023-01-19T06:19:58;99320.61;;;19.31;37.58
76827;BME280;65788;52.284;20.890;2023-01-19T06:22:25;99326.73;;;19.32;37.54
76827;BME280;65788;52.284;20.890;2023-01-19T06:24:52;99336.00;;;19.35;37.45
76827;BME280;65788;52.284;20.890;2023-01-19T06:27:19;99345.70;;;19.41;37.37
76827;BME280;65788;52.284;20.890;2023-01-19T06:29:47;99361.25;;;19.42;37.33
76827;BME280;65788;52.284;20.890;2023-01-19T06:32:14;99366.78;;;19.43;37.26
76827;BME280;65788;52.284;20.890;2023-01-19T06:34:41;99373.43;;;19.45;37.23
76827;BME280;65788;52.284;20.890;2023-01-19T06:37:09;99376.88;;;19.46;37.19
76827;BME280;65788;52.284;20.890;2023-01-19T06:39:37;99381.91;;;19.48;37.13
76827;BME280;65788;52.284;20.890;2023-01-19T06:42:07;99383.27;;;19.49;37.08
76827;BME280;65788;52.284;20.890;2023-01-19T06:44:34;99389.21;;;19.50;37.03
76827;BME280;65788;52.284;20.890;2023-01-19T06:47:02;99386.89;;;19.53;36.96
76827;BME280;65788;52.284;20.890;2023-01-19T06:49:29;99391.64;;;19.54;36.92
76827;BME280;65788;52.284;20.890;2023-01-19T06:51:56;99403.75;;;19.55;36.89
76827;BME280;65788;52.284;20.890;2023-01-19T06:54:23;99402.80;;;19.57;36.84
76827;BME280;65788;52.284;20.890;2023-01-19T06:56:50;99406.23;;;19.58;36.83
76827;BME280;65788;52.284;20.890;2023-01-19T06:59:18;99404.15;;;19.58;36.83
76827;BME280;65788;52.284;20.890;2023-01-19T07:01:46;99398.51;;;19.60;36.81
76827;BME280;65788;52.284;20.890;2023-01-19T07:04:14;99393.98;;;19.62;36.76
76827;BME280;65788;52.284;20.890;2023-01-19T07:06:41;99395.86;;;19.64;36.73
76827;BME280;65788;52.284;20.890;2023-01-19T07:09:08;99393.28;;;19.66;36.66
76827;BME280;65788;52.284;20.890;2023-01-19T07:11:39;99390.81;;;19.64;36.68
76827;BME280;65788;52.284;20.890;2023-01-19T07:14:06;99386.34;;;19.62;36.68
76827;BME280;65788;52.284;20.890;2023-01-19T07:16:33;99381.81;;;19.60;36.71
76827;BME280;65788;52.284;20.890;2023-01-19T07:19:00;99375.54;;;19.60;36.68
76827;BME280;65788;52.284;20.890;2023-01-19T07:21:28;99372.88;;;19.61;36.67
76827;BME280;65788;52.284;20.890;2023-01-19T07:23:55;99373.70;;;19.63;36.61
76827;BME280;65788;52.284;20.890;2023-01-19T07:26:22;99380.14;;;19.66;36.56
76827;BME280;65788;52.284;20.890;2023-01-19T07:28:51;99388.02;;;19.69;36.50
76827;BME280;65788;52.284;20.890;2023-01-19T07:31:18;99386.87;;;19.72;36.48
76827;BME280;65788;52.284;20.890;2023-01-19T07:33:46;99383.54;;;19.76;36.46
76827;BME280;65788;52.284;20.890;2023-01-19T07:36:13;99379.06;;;19.77;36.51
76827;BME280;65788;52.284;20.890;2023-01-19T07:38:40;99375.04;;;19.78;36.52
76827;BME280;65788;52.284;20.890;2023-01-19T07:41:09;99380.08;;;19.80;36.53
76827;BME280;65788;52.284;20.890;2023-01-19T07:43:36;99379.39;;;19.81;36.55
76827;BME280;65788;52.284;20.890;2023-01-19T07:46:04;99381.09;;;19.83;36.55
76827;BME280;65788;52.284;20.890;2023-01-19T07:48:31;99380.38;;;19.84;36.57
76827;BME280;65788;52.284;20.890;2023-01-19T07:51:00;99387.89;;;19.85;36.63
76827;BME280;65788;52.284;20.890;2023-01-19T07:53:31;99389.85;;;19.85;36.75
76827;BME280;65788;52.284;20.890;2023-01-19T07:55:58;99397.23;;;19.88;36.74
76827;BME280;65788;52.284;20.890;2023-01-19T07:58:26;99407.20;;;19.90;36.82
76827;BME280;65788;52.284;20.890;2023-01-19T08:00:53;99416.79;;;19.92;37.33
76827;BME280;65788;52.284;20.890;2023-01-19T08:03:20;99428.19;;;19.93;37.50
76827;BME280;65788;52.284;20.890;2023-01-19T08:05:51;99435.13;;;19.93;37.67
76827;BME280;65788;52.284;20.890;2023-01-19T08:08:19;99434.76;;;19.94;37.64
76827;BME280;65788;52.284;20.890;2023-01-19T08:10:50;99432.36;;;19.96;37.83
76827;BME280;65788;52.284;20.890;2023-01-19T08:13:17;99426.60;;;20.03;37.83
76827;BME280;65788;52.284;20.890;2023-01-19T08:15:52;99422.48;;;20.10;37.81
76827;BME280;65788;52.284;20.890;2023-01-19T08:18:20;99423.42;;;20.12;37.66
76827;BME280;65788;52.284;20.890;2023-01-19T08:20:46;99415.04;;;20.16;37.77
76827;BME280;65788;52.284;20.890;2023-01-19T08:23:14;99410.50;;;20.17;38.10
76827;BME280;65788;52.284;20.890;2023-01-19T08:25:42;99404.84;;;20.20;37.87
76827;BME280;65788;52.284;20.890;2023-01-19T08:28:14;99407.69;;;20.21;38.14
76827;BME280;65788;52.284;20.890;2023-01-19T08:30:42;99409.77;;;20.22;39.40
76827;BME280;65788;52.284;20.890;2023-01-19T08:33:11;99400.83;;;20.34;39.91
76827;BME280;65788;52.284;20.890;2023-01-19T08:35:40;99390.35;;;20.34;39.68
76827;BME280;65788;52.284;20.890;2023-01-19T08:38:09;99390.88;;;20.40;39.64
76827;BME280;65788;52.284;20.890;2023-01-19T08:40:39;99394.75;;;20.46;39.28
76827;BME280;65788;52.284;20.890;2023-01-19T08:43:10;99396.41;;;20.46;39.17
76827;BME280;65788;52.284;20.890;2023-01-19T08:45:42;99397.98;;;20.53;38.97
76827;BME280;65788;52.284;20.890;2023-01-19T08:48:15;99401.32;;;20.58;39.02
76827;BME280;65788;52.284;20.890;2023-01-19T08:50:47;99395.73;;;20.55;38.70
76827;BME280;65788;52.284;20.890;2023-01-19T08:53:15;99393.31;;;20.65;38.48
76827;BME280;65788;52.284;20.890;2023-01-19T08:55:42;99400.17;;;20.59;37.78
76827;BME280;65788;52.284;20.890;2023-01-19T08:58:09;99407.94;;;20.58;37.73
76827;BME280;65788;52.284;20.890;2023-01-19T09:00:38;99408.67;;;20.55;37.21
76827;BME280;65788;52.284;20.890;2023-01-19T09:03:08;99414.22;;;20.58;37.16
76827;BME280;65788;52.284;20.890;2023-01-19T09:05:37;99419.66;;;20.57;36.90
76827;BME280;65788;52.284;20.890;2023-01-19T09:08:09;99426.84;;;20.58;36.84
76827;BME280;65788;52.284;20.890;2023-01-19T09:10:44;99429.04;;;20.64;36.64
76827;BME280;65788;52.284;20.890;2023-01-19T09:13:12;99427.89;;;20.62;36.62
76827;BME280;65788;52.284;20.890;2023-01-19T09:15:41;99426.70;;;20.60;36.61
76827;BME280;65788;52.284;20.890;2023-01-19T09:18:12;99429.16;;;20.57;36.58
76827;BME280;65788;52.284;20.890;2023-01-19T09:20:40;99430.39;;;20.55;36.54
76827;BME280;65788;52.284;20.890;2023-01-19T09:23:09;99431.05;;;20.54;36.54
76827;BME280;65788;52.284;20.890;2023-01-19T09:25:37;99425.30;;;20.55;36.43
76827;BME280;65788;52.284;20.890;2023-01-19T09:28:06;99426.61;;;20.54;36.42
76827;BME280;65788;52.284;20.890;2023-01-19T09:30:36;99436.48;;;20.57;36.30
76827;BME280;65788;52.284;20.890;2023-01-19T09:33:06;99439.97;;;20.58;36.21
76827;BME280;65788;52.284;20.890;2023-01-19T09:35:37;99444.24;;;20.58;36.20
76827;BME280;65788;52.284;20.890;2023-01-19T09:38:06;99441.77;;;20.60;36.07
76827;BME280;65788;52.284;20.890;2023-01-19T09:40:36;99440.92;;;20.66;36.42
76827;BME280;65788;52.284;20.890;2023-01-19T09:48:58;99437.46;;;20.51;36.97
76827;BME280;65788;52.284;20.890;2023-01-19T09:51:37;99437.59;;;20.03;36.84
76827;BME280;65788;52.284;20.890;2023-01-19T09:54:30;99436.83;;;20.10;37.28
76827;BME280;65788;52.284;20.890;2023-01-19T09:57:01;99438.12;;;20.13;36.89
76827;BME280;65788;52.284;20.890;2023-01-19T09:59:30;99431.94;;;19.80;37.50
76827;BME280;65788;52.284;20.890;2023-01-19T10:02:34;99428.86;;;20.22;36.77
76827;BME280;65788;52.284;20.890;2023-01-19T10:05:23;99427.13;;;20.31;36.58
76827;BME280;65788;52.284;20.890;2023-01-19T10:10:30;99426.23;;;20.04;37.01
76827;BME280;65788;52.284;20.890;2023-01-19T10:18:39;99424.44;;;19.86;37.12
76827;BME280;65788;52.284;20.890;2023-01-19T10:23:59;99411.41;;;20.31;36.91
76827;BME280;65788;52.284;20.890;2023-01-19T10:26:39;99416.28;;;20.48;36.10
76827;BME280;65788;52.284;20.890;2023-01-19T10:29:29;99420.55;;;20.55;36.03
76827;BME280;65788;52.284;20.890;2023-01-19T10:32:06;99414.48;;;20.60;36.01
76827;BME280;65788;52.284;20.890;2023-01-19T10:34:34;99411.76;;;20.61;35.81
76827;BME280;65788;52.284;20.890;2023-01-19T10:39:44;99411.45;;;20.79;35.54
76827;BME280;65788;52.284;20.890;2023-01-19T10:42:19;99405.02;;;20.69;35.55
76827;BME280;65788;52.284;20.890;2023-01-19T10:44:48;99399.02;;;20.78;36.56
76827;BME280;65788;52.284;20.890;2023-01-19T10:47:17;99399.75;;;20.71;35.64
76827;BME280;65788;52.284;20.890;2023-01-19T10:49:46;99399.08;;;20.74;35.65
76827;BME280;65788;52.284;20.890;2023-01-19T10:52:32;99401.88;;;20.75;35.62
76827;BME280;65788;52.284;20.890;2023-01-19T10:55:06;99400.31;;;20.78;35.62
76827;BME280;65788;52.284;20.890;2023-01-19T10:57:55;99393.32;;;20.83;35.52
76827;BME280;65788;52.284;20.890;2023-01-19T11:00:37;99398.11;;;20.77;35.53
76827;BME280;65788;52.284;20.890;2023-01-19T11:03:26;99404.59;;;20.78;35.54
76827;BME280;65788;52.284;20.890;2023-01-19T11:08:46;99406.05;;;20.82;35.34
76827;BME280;65788;52.284;20.890;2023-01-19T11:11:13;99406.09;;;20.81;35.35
76827;BME280;65788;52.284;20.890;2023-01-19T11:13:41;99405.04;;;20.82;35.27
76827;BME280;65788;52.284;20.890;2023-01-19T11:18:50;99404.52;;;20.96;34.98
76827;BME280;65788;52.284;20.890;2023-01-19T11:21:21;99396.66;;;20.87;35.11
76827;BME280;65788;52.284;20.890;2023-01-19T11:23:58;99397.61;;;20.83;35.21
76827;BME280;65788;52.284;20.890;2023-01-19T11:26:47;99403.31;;;20.86;35.21
76827;BME280;65788;52.284;20.890;2023-01-19T11:29:20;99405.06;;;20.93;35.12
76827;BME280;65788;52.284;20.890;2023-01-19T11:31:53;99401.92;;;20.94;35.09
76827;BME280;65788;52.284;20.890;2023-01-19T11:34:29;99397.15;;;20.95;35.28
76827;BME280;65788;52.284;20.890;2023-01-19T11:39:29;99384.30;;;21.04;34.99
76827;BME280;65788;52.284;20.890;2023-01-19T11:42:00;99383.64;;;21.04;34.96
76827;BME280;65788;52.284;20.890;2023-01-19T11:44:29;99376.81;;;21.04;34.95
76827;BME280;65788;52.284;20.890;2023-01-19T11:47:01;99377.11;;;21.07;35.59
76827;BME280;65788;52.284;20.890;2023-01-19T11:52:30;99372.10;;;21.14;34.76
76827;BME280;65788;52.284;20.890;2023-01-19T11:57:33;99365.17;;;21.17;35.37
76827;BME280;65788;52.284;20.890;2023-01-19T12:00:10;99370.31;;;21.14;34.73
76827;BME280;65788;52.284;20.890;2023-01-19T12:02:45;99367.32;;;21.15;34.70
76827;BME280;65788;52.284;20.890;2023-01-19T12:05:18;99369.86;;;21.18;34.80
76827;BME280;65788;52.284;20.890;2023-01-19T12:07:46;99367.35;;;21.22;34.54
76827;BME280;65788;52.284;20.890;2023-01-19T12:10:20;99366.88;;;21.19;34.56
76827;BME280;65788;52.284;20.890;2023-01-19T12:12:50;99366.70;;;21.19;34.65
76827;BME280;65788;52.284;20.890;2023-01-19T12:15:34;99367.38;;;21.18;34.56
76827;BME280;65788;52.284;20.890;2023-01-19T12:18:05;99366.64;;;21.19;34.89
76827;BME280;65788;52.284;20.890;2023-01-19T12:20:42;99365.67;;;21.17;34.50
76827;BME280;65788;52.284;20.890;2023-01-19T12:23:30;99365.87;;;21.06;34.56
76827;BME280;65788;52.284;20.890;2023-01-19T12:26:16;99366.61;;;21.02;34.69
76827;BME280;65788;52.284;20.890;2023-01-19T12:28:48;99361.02;;;20.93;34.74
76827;BME280;65788;52.284;20.890;2023-01-19T12:31:19;99362.98;;;20.80;34.88
76827;BME280;65788;52.284;20.890;2023-01-19T12:33:47;99362.36;;;20.76;34.92
76827;BME280;65788;52.284;20.890;2023-01-19T12:38:52;99366.30;;;20.67;34.99
76827;BME280;65788;52.284;20.890;2023-01-19T12:44:12;99362.09;;;20.59;35.04
76827;BME280;65788;52.284;20.890;2023-01-19T12:46:41;99360.73;;;20.53;35.11
76827;BME280;65788;52.284;20.890;2023-01-19T12:49:48;99363.63;;;20.50;35.08
76827;BME280;65788;52.284;20.890;2023-01-19T13:00:06;99355.17;;;20.71;34.82
76827;BME280;65788;52.284;20.890;2023-01-19T13:02:41;99362.36;;;20.71;34.73
76827;BME280;65788;52.284;20.890;2023-01-19T13:13:29;99353.54;;;20.78;34.85
76827;BME280;65788;52.284;20.890;2023-01-19T13:18:57;99348.23;;;20.88;34.97
76827;BME280;65788;52.284;20.890;2023-01-19T13:21:27;99349.80;;;20.93;34.80
76827;BME280;65788;52.284;20.890;2023-01-19T13:23:59;99351.10;;;20.95;34.75
76827;BME280;65788;52.284;20.890;2023-01-19T13:26:31;99350.11;;;21.08;35.04
76827;BME280;65788;52.284;20.890;2023-01-19T13:32:13;99350.33;;;21.10;34.72
76827;BME280;65788;52.284;20.890;2023-01-19T13:34:57;99349.64;;;21.17;34.70
76827;BME280;65788;52.284;20.890;2023-01-19T13:37:36;99342.30;;;21.22;34.55
76827;BME280;65788;52.284;20.890;2023-01-19T13:40:06;99346.27;;;21.24;34.66
76827;BME280;65788;52.284;20.890;2023-01-19T13:42:38;99354.70;;;21.31;34.79
76827;BME280;65788;52.284;20.890;2023-01-19T13:45:26;99356.88;;;21.26;34.54
76827;BME280;65788;52.284;20.890;2023-01-19T13:48:00;99360.23;;;21.14;34.60
76827;BME280;65788;52.284;20.890;2023-01-19T13:50:32;99357.48;;;21.16;34.74
76827;BME280;65788;52.284;20.890;2023-01-19T13:53:00;99360.48;;;21.16;34.49
76827;BME280;65788;52.284;20.890;2023-01-19T13:55:29;99366.73;;;21.17;34.45
76827;BME280;65788;52.284;20.890;2023-01-19T13:57:56;99373.36;;;21.22;34.32
76827;BME280;65788;52.284;20.890;2023-01-19T14:00:26;99379.38;;;21.24;34.27
76827;BME280;65788;52.284;20.890;2023-01-19T14:03:18;99377.14;;;21.17;34.46
76827;BME280;65788;52.284;20.890;2023-01-19T14:05:49;99379.31;;;21.14;34.34
76827;BME280;65788;52.284;20.890;2023-01-19T14:08:18;99382.66;;;21.15;34.46
76827;BME280;65788;52.284;20.890;2023-01-19T14:13:33;99381.81;;;21.12;34.35
76827;BME280;65788;52.284;20.890;2023-01-19T14:16:06;99383.58;;;21.12;34.39
76827;BME280;65788;52.284;20.890;2023-01-19T14:18:35;99380.52;;;21.12;34.37
76827;BME280;65788;52.284;20.890;2023-01-19T14:21:13;99375.35;;;21.16;34.44
76827;BME280;65788;52.284;20.890;2023-01-19T14:24:17;99372.70;;;21.12;34.30
76827;BME280;65788;52.284;20.890;2023-01-19T14:29:32;99370.11;;;21.11;34.26